Time;durP1;ratioP1;P1;durP2;ratioP2;P2;SDS_P1;SDS_P2;PMS_P1;PMS_P2;Temp;Humidity;BMP_temperature;BMP_pressure;BME280_temperature;BME280_humidity;BME280_pressure;Samples;Min_cycle;Max_cycle;Signal;HPM_P1;HPM_P2
2024/02/18 00:01:52;;;;;;;105.57;58.75;;;;;;;2.29;95.31;94083.28;5081614;28;20167;-71
2024/02/18 00:04:19;;;;;;;53.72;32.72;;;;;;;2.27;95.00;94080.91;5074277;28;20049;-71
2024/02/18 00:06:46;;;;;;;71.50;40.42;;;;;;;2.26;94.59;94077.56;5078855;28;20551;-71
2024/02/18 00:09:13;;;;;;;60.58;37.10;;;;;;;2.27;94.52;94075.84;5073233;28;20082;-71
2024/02/18 00:11:41;;;;;;;66.68;39.33;;;;;;;2.31;93.85;94077.16;5074730;28;20110;-71
2024/02/18 00:14:08;;;;;;;55.35;34.08;;;;;;;2.21;94.13;94064.50;5074567;28;20127;-71
2024/02/18 00:16:35;;;;;;;47.13;32.28;;;;;;;2.31;93.03;94081.44;5074004;28;20044;-71
2024/02/18 00:19:03;;;;;;;45.35;30.10;;;;;;;2.27;94.15;94079.16;5074745;28;20046;-71
2024/02/18 00:21:31;;;;;;;144.90;73.80;;;;;;;2.27;94.45;94081.69;5078032;28;20044;-71
2024/02/18 00:23:58;;;;;;;61.60;35.53;;;;;;;2.35;94.47;94078.47;5074983;28;20052;-71
2024/02/18 00:26:25;;;;;;;49.97;31.50;;;;;;;2.25;93.81;94068.38;5075771;28;20111;-71
2024/02/18 00:28:52;;;;;;;50.45;31.90;;;;;;;2.35;93.24;94082.75;5069394;28;20051;-71
2024/02/18 00:31:19;;;;;;;44.65;29.02;;;;;;;2.35;92.65;94075.13;5055541;28;20048;-72
2024/02/18 00:33:46;;;;;;;40.65;26.42;;;;;;;2.35;92.73;94072.59;5054485;28;20064;-71
2024/02/18 00:36:15;;;;;;;38.83;27.02;;;;;;;2.25;92.41;94067.56;5054036;28;20052;-71
2024/02/18 00:38:42;;;;;;;34.53;22.00;;;;;;;2.25;92.41;94072.63;5053714;28;20052;-71
2024/02/18 00:41:10;;;;;;;25.20;17.63;;;;;;;2.14;92.76;94073.59;5070667;28;20052;-71
2024/02/18 00:43:37;;;;;;;27.55;18.20;;;;;;;2.16;93.00;94076.00;5074717;28;20048;-71
2024/02/18 00:46:04;;;;;;;23.83;16.58;;;;;;;2.13;93.14;94066.94;5073732;28;20041;-71
2024/02/18 00:48:31;;;;;;;26.23;17.10;;;;;;;2.12;93.51;94073.72;5073490;28;20051;-71
2024/02/18 00:50:58;;;;;;;24.60;17.52;;;;;;;2.14;92.59;94076.13;5073973;28;20141;-71
2024/02/18 00:53:26;;;;;;;25.50;17.27;;;;;;;2.15;92.98;94077.72;5071014;28;20400;-71
2024/02/18 00:55:54;;;;;;;24.48;17.00;;;;;;;2.12;92.77;94076.25;5070187;28;20722;-72
2024/02/18 00:58:20;;;;;;;24.13;17.23;;;;;;;2.16;92.51;94076.78;5070806;28;20044;-72
2024/02/18 01:00:47;;;;;;;24.48;16.73;;;;;;;2.05;93.47;94072.69;5071891;28;20415;-72
2024/02/18 01:03:15;;;;;;;24.17;16.10;;;;;;;2.05;92.54;94074.41;5076856;28;20054;-72
2024/02/18 01:05:42;;;;;;;23.55;15.25;;;;;;;1.99;93.47;94084.16;5074899;28;20504;-72
2024/02/18 01:08:09;;;;;;;27.15;17.73;;;;;;;1.94;93.17;94073.59;5073437;28;20420;-72
2024/02/18 01:10:37;;;;;;;32.22;19.27;;;;;;;1.98;93.21;94074.94;5074173;28;20082;-72
2024/02/18 01:13:04;;;;;;;23.27;13.25;;;;;;;1.92;93.75;94078.03;5072726;28;20139;-72
2024/02/18 01:15:31;;;;;;;19.85;13.32;;;;;;;1.94;92.81;94073.59;5070608;28;20119;-72
2024/02/18 01:17:58;;;;;;;18.30;12.35;;;;;;;1.83;93.61;94066.97;5072935;28;20052;-71
2024/02/18 01:20:25;;;;;;;17.15;11.13;;;;;;;1.84;94.02;94070.28;5070878;28;20044;-72
2024/02/18 01:22:52;;;;;;;29.33;18.15;;;;;;;1.70;94.39;94059.63;5076148;28;20048;-72
2024/02/18 01:25:19;;;;;;;19.35;12.57;;;;;;;1.64;94.67;94062.69;5073206;28;20051;-72
2024/02/18 01:27:47;;;;;;;48.78;30.88;;;;;;;1.70;93.50;94053.75;5077358;28;20054;-71
2024/02/18 01:30:15;;;;;;;18.17;12.43;;;;;;;1.66;93.26;94068.44;5078662;28;20135;-71
2024/02/18 01:32:42;;;;;;;17.10;11.77;;;;;;;1.53;92.89;94066.16;5071154;28;20050;-71
2024/02/18 01:35:09;;;;;;;20.65;13.15;;;;;;;1.54;93.38;94070.31;5070653;28;20052;-72
2024/02/18 01:37:35;;;;;;;18.13;11.68;;;;;;;1.49;94.40;94064.84;5079670;28;20040;-73
2024/02/18 01:40:02;;;;;;;18.38;12.27;;;;;;;1.52;95.17;94063.78;5072578;28;20051;-72
2024/02/18 01:42:29;;;;;;;19.90;13.43;;;;;;;1.53;94.75;94060.31;5070627;28;20048;-72
2024/02/18 01:44:57;;;;;;;24.40;16.55;;;;;;;1.52;95.29;94059.50;5072176;28;20389;-72
2024/02/18 01:47:24;;;;;;;20.35;13.55;;;;;;;1.48;95.34;94050.56;5071575;28;20048;-72
2024/02/18 01:49:52;;;;;;;18.58;13.32;;;;;;;1.51;95.79;94062.97;5071260;28;20055;-72
2024/02/18 01:52:19;;;;;;;20.00;13.52;;;;;;;1.51;95.67;94062.97;5079418;28;20051;-72
2024/02/18 01:54:48;;;;;;;19.80;13.93;;;;;;;1.54;94.99;94067.78;5071789;28;20086;-72
2024/02/18 01:57:14;;;;;;;17.60;12.77;;;;;;;1.53;95.27;94067.91;5069082;28;20062;-72
2024/02/18 01:59:43;;;;;;;16.58;11.73;;;;;;;1.50;96.27;94068.97;5074427;28;20052;-72
2024/02/18 02:02:11;;;;;;;20.90;13.65;;;;;;;1.53;95.87;94067.91;5072778;28;20048;-73
2024/02/18 02:04:38;;;;;;;20.20;13.05;;;;;;;1.55;95.46;94068.56;5073882;28;20047;-72
2024/02/18 02:07:07;;;;;;;19.80;12.23;;;;;;;1.53;95.84;94066.16;5073216;28;20044;-72
2024/02/18 02:09:34;;;;;;;20.95;13.52;;;;;;;1.55;95.80;94066.84;5069037;28;20044;-73
2024/02/18 02:12:02;;;;;;;20.83;13.77;;;;;;;1.36;97.75;94074.41;5068084;28;20062;-72
2024/02/18 02:14:28;;;;;;;34.85;21.00;;;;;;;1.39;97.88;94064.81;5073935;28;20055;-73
2024/02/18 02:16:56;;;;;;;26.25;16.55;;;;;;;1.39;97.49;94069.09;5071469;28;20163;-72
2024/02/18 02:19:24;;;;;;;24.45;16.38;;;;;;;1.28;98.42;94073.34;5071552;28;20098;-72
2024/02/18 02:21:51;;;;;;;36.33;23.70;;;;;;;1.39;97.96;94077.47;5067996;28;20051;-72
2024/02/18 02:24:18;;;;;;;40.65;25.20;;;;;;;1.41;98.32;94077.34;5072081;28;20044;-72
2024/02/18 02:26:49;;;;;;;27.02;18.17;;;;;;;1.33;97.75;94065.34;5074812;28;20844;-73
2024/02/18 02:29:18;;;;;;;29.38;21.48;;;;;;;0.93;98.53;94052.63;5076141;28;20131;-73
2024/02/18 02:31:46;;;;;;;150.50;64.38;;;;;;;1.16;99.02;94087.03;5078069;28;20580;-73
2024/02/18 02:34:13;;;;;;;91.97;39.83;;;;;;;0.78;100.00;94059.75;5067815;28;20080;-73
2024/02/18 02:36:40;;;;;;;99.75;44.30;;;;;;;1.01;100.00;94079.81;5074720;28;20078;-73
2024/02/18 02:39:08;;;;;;;61.20;32.47;;;;;;;1.08;99.93;94085.16;5069076;28;20045;-72
2024/02/18 02:41:35;;;;;;;173.63;72.82;;;;;;;0.97;99.33;94058.22;5078173;28;20040;-72
2024/02/18 02:44:02;;;;;;;85.00;38.20;;;;;;;1.12;99.26;94096.63;5071439;28;20087;-72
2024/02/18 02:46:30;;;;;;;121.15;52.25;;;;;;;1.16;98.76;94095.41;5074523;28;20055;-72
2024/02/18 02:48:57;;;;;;;243.63;85.10;;;;;;;1.14;98.47;94094.75;5076597;28;20056;-73
2024/02/18 02:51:24;;;;;;;478.42;189.43;;;;;;;0.91;100.00;94079.78;5072595;28;20047;-72
2024/02/18 02:53:51;;;;;;;77.32;35.88;;;;;;;1.08;99.79;94092.75;5067814;28;20420;-72
2024/02/18 02:56:18;;;;;;;653.50;226.38;;;;;;;1.08;99.97;94099.53;5069675;28;20056;-71
2024/02/18 02:58:45;;;;;;;134.00;49.05;;;;;;;1.11;100.00;94092.47;5070762;28;20409;-72
2024/02/18 03:01:12;;;;;;;541.72;184.93;;;;;;;1.03;99.78;94100.69;5070124;28;20050;-72
2024/02/18 03:03:41;;;;;;;403.15;136.13;;;;;;;1.04;100.00;94097.25;5073477;28;20063;-72
2024/02/18 03:06:08;;;;;;;302.02;99.65;;;;;;;0.92;100.00;94086.44;5072131;28;20040;-72
2024/02/18 03:08:54;;;;;;;259.38;89.70;;;;;;;1.11;100.00;94095.00;5073891;28;20070;-72
2024/02/18 03:11:20;;;;;;;;;;;;;;;1.06;100.00;94107.22;5070841;28;20029;-72
2024/02/18 03:13:48;;;;;;;181.00;77.55;;;;;;;0.96;100.00;94096.31;5069125;28;20093;-72
2024/02/18 03:16:15;;;;;;;109.63;47.58;;;;;;;0.97;99.57;94101.22;5073591;28;20051;-71
2024/02/18 03:18:43;;;;;;;47.78;23.52;;;;;;;1.03;98.72;94107.50;5067952;28;20106;-72
2024/02/18 03:21:12;;;;;;;75.20;35.83;;;;;;;0.98;99.30;94102.03;5067394;28;20054;-72
2024/02/18 03:23:39;;;;;;;44.50;23.80;;;;;;;1.07;98.96;94116.44;5075760;28;20127;-72
2024/02/18 03:26:06;;;;;;;33.55;20.85;;;;;;;0.91;99.62;94107.59;5070730;28;20131;-72
2024/02/18 03:28:33;;;;;;;31.02;20.50;;;;;;;0.98;99.31;94112.16;5071632;28;20805;-72
2024/02/18 03:31:00;;;;;;;38.20;21.42;;;;;;;0.83;98.67;94104.13;5070853;28;20045;-72
2024/02/18 03:33:27;;;;;;;141.73;71.15;;;;;;;0.82;100.00;94122.75;5076178;28;20123;-72
2024/02/18 03:35:55;;;;;;;36.33;23.85;;;;;;;0.80;99.01;94120.34;5068793;28;20054;-72
2024/02/18 03:38:22;;;;;;;33.30;21.30;;;;;;;0.73;99.24;94124.28;5072066;28;20048;-72
2024/02/18 03:40:49;;;;;;;58.25;31.55;;;;;;;0.73;100.00;94129.34;5070271;28;20044;-72
2024/02/18 03:43:16;;;;;;;49.30;29.52;;;;;;;0.75;100.00;94130.81;5070217;28;20051;-73
2024/02/18 03:45:43;;;;;;;50.55;31.52;;;;;;;0.89;99.83;94123.84;5069392;28;20052;-72
2024/02/18 03:48:10;;;;;;;33.55;21.20;;;;;;;0.86;98.89;94119.03;5074290;28;20045;-72
2024/02/18 03:50:37;;;;;;;46.05;25.77;;;;;;;0.88;98.17;94114.66;5068018;28;20044;-71
2024/02/18 03:53:06;;;;;;;59.53;29.27;;;;;;;0.91;97.23;94121.97;5072470;28;20389;-72
2024/02/18 03:55:33;;;;;;;23.42;14.23;;;;;;;0.80;97.59;94123.66;5071269;28;20067;-71
2024/02/18 03:58:00;;;;;;;19.95;13.10;;;;;;;0.79;97.30;94124.59;5068103;28;20473;-71
2024/02/18 04:00:27;;;;;;;20.70;13.27;;;;;;;0.77;96.64;94123.13;5068674;28;20044;-71
2024/02/18 04:02:54;;;;;;;18.60;13.15;;;;;;;0.78;97.44;94127.25;5070084;28;20044;-71
2024/02/18 04:05:21;;;;;;;20.40;13.57;;;;;;;0.64;96.69;94116.53;5079080;28;20040;-71
2024/02/18 04:07:48;;;;;;;24.55;15.88;;;;;;;0.74;96.85;94136.81;5067483;28;20044;-71
2024/02/18 04:10:16;;;;;;;18.30;12.65;;;;;;;0.56;97.46;94125.69;5080140;28;20040;-71
2024/02/18 04:12:43;;;;;;;23.08;13.95;;;;;;;0.51;97.77;94126.84;5074329;28;20052;-71
2024/02/18 04:15:10;;;;;;;24.33;15.65;;;;;;;0.50;99.03;94126.97;5073198;28;20059;-71
2024/02/18 04:17:37;;;;;;;20.60;14.50;;;;;;;0.55;99.40;94129.94;5070507;28;20075;-70
2024/02/18 04:20:09;;;;;;;24.38;16.08;;;;;;;0.61;98.49;94137.00;5069924;28;20051;-71
2024/02/18 04:22:35;;;;;;;25.67;16.58;;;;;;;0.49;100.00;94125.38;5073708;28;20408;-71
2024/02/18 04:25:03;;;;;;;26.73;17.48;;;;;;;0.57;99.90;94130.63;5069508;28;20036;-70
2024/02/18 04:27:31;;;;;;;83.78;42.47;;;;;;;0.63;100.00;94131.84;5075703;28;20131;-72
2024/02/18 04:29:58;;;;;;;99.03;52.60;;;;;;;0.63;99.14;94135.19;5069104;28;20052;-71
2024/02/18 04:32:25;;;;;;;55.25;30.77;;;;;;;0.60;99.02;94132.09;5077507;28;20062;-71
2024/02/18 04:34:52;;;;;;;150.27;80.93;;;;;;;0.63;98.85;94131.84;5071188;28;20052;-71
2024/02/18 04:37:19;;;;;;;91.88;49.38;;;;;;;0.60;98.28;94130.34;5071801;28;20044;-71
2024/02/18 04:39:46;;;;;;;73.10;43.17;;;;;;;0.57;98.28;94120.50;5082317;28;20051;-71
2024/02/18 04:42:13;;;;;;;50.38;30.20;;;;;;;0.57;97.56;94127.28;5074184;28;20071;-71
2024/02/18 04:44:41;;;;;;;44.88;30.15;;;;;;;0.21;100.00;94120.03;5073158;28;20508;-71
2024/02/18 04:47:08;;;;;;;49.13;30.50;;;;;;;0.36;100.00;94128.09;5071714;28;20044;-71
2024/02/18 04:49:35;;;;;;;60.25;34.88;;;;;;;0.42;99.72;94130.16;5074338;28;20147;-70
2024/02/18 04:52:02;;;;;;;56.00;32.38;;;;;;;0.36;100.00;94125.56;5077142;28;20054;-71
2024/02/18 04:54:29;;;;;;;82.32;39.15;;;;;;;0.37;100.00;94133.03;5070584;28;20091;-70
2024/02/18 04:56:56;;;;;;;130.85;58.22;;;;;;;0.36;100.00;94125.56;5073708;28;20159;-70
2024/02/18 04:59:23;;;;;;;143.48;65.15;;;;;;;0.32;100.00;94136.88;5077807;28;20040;-70
2024/02/18 05:01:51;;;;;;;106.72;48.83;;;;;;;0.32;100.00;94130.06;5073676;28;20045;-71
2024/02/18 05:04:18;;;;;;;109.93;55.70;;;;;;;0.27;100.00;94132.16;5082359;28;20085;-71
2024/02/18 05:06:48;;;;;;;118.30;55.72;;;;;;;0.28;100.00;94127.91;5082693;28;20752;-71
2024/02/18 05:09:15;;;;;;;105.47;52.42;;;;;;;0.32;100.00;94129.28;5069431;28;20044;-71
2024/02/18 05:11:42;;;;;;;99.95;51.58;;;;;;;0.36;100.00;94133.97;5073807;28;20044;-70
2024/02/18 05:14:09;;;;;;;95.53;49.95;;;;;;;0.36;100.00;94128.91;5071132;28;20040;-70
2024/02/18 05:16:37;;;;;;;95.25;49.83;;;;;;;0.43;100.00;94143.56;5072279;28;20079;-70
2024/02/18 05:19:05;;;;;;;64.63;35.38;;;;;;;0.38;100.00;94143.94;5073290;28;20058;-70
2024/02/18 05:21:32;;;;;;;56.60;31.88;;;;;;;0.41;100.00;94136.09;5078476;28;20404;-70
2024/02/18 05:24:01;;;;;;;37.15;23.15;;;;;;;0.51;100.00;94144.56;5073054;28;20076;-70
2024/02/18 05:26:29;;;;;;;35.92;24.20;;;;;;;0.43;99.94;94130.94;5077708;28;20143;-70
2024/02/18 05:28:56;;;;;;;35.05;21.10;;;;;;;0.51;98.95;94139.50;5076953;28;20048;-70
2024/02/18 05:31:24;;;;;;;29.08;18.23;;;;;;;0.51;98.82;94149.59;5079323;28;20041;-70
2024/02/18 05:33:52;;;;;;;38.22;22.10;;;;;;;0.50;98.50;94145.47;5070446;28;20071;-70
2024/02/18 05:36:20;;;;;;;30.83;20.00;;;;;;;0.45;98.29;94147.56;5073911;28;20041;-70
2024/02/18 05:38:47;;;;;;;31.02;20.50;;;;;;;0.54;98.43;94156.13;5072563;28;20066;-70
2024/02/18 05:41:16;;;;;;;29.10;19.33;;;;;;;0.51;99.03;94149.59;5075318;28;20068;-70
2024/02/18 05:43:43;;;;;;;28.00;19.42;;;;;;;0.49;99.48;94156.53;5071990;28;20049;-70
2024/02/18 05:46:10;;;;;;;28.90;18.92;;;;;;;0.59;98.68;94159.09;5074471;28;20055;-70
2024/02/18 05:48:39;;;;;;;46.45;28.88;;;;;;;0.33;100.00;94156.94;5072884;28;20044;-70
2024/02/18 05:51:06;;;;;;;40.47;24.75;;;;;;;0.35;100.00;94154.28;5072724;28;20048;-70
2024/02/18 05:53:34;;;;;;;35.60;22.90;;;;;;;0.03;100.00;94134.91;5073978;28;20044;-70
2024/02/18 05:56:01;;;;;;;41.05;26.75;;;;;;;0.42;100.00;94162.19;5071849;28;20056;-70
2024/02/18 05:58:28;;;;;;;46.70;30.58;;;;;;;0.11;100.00;94173.84;5071256;28;20044;-70
2024/02/18 06:00:55;;;;;;;46.60;30.25;;;;;;;0.42;100.00;94164.72;5072512;28;20519;-70
2024/02/18 06:03:22;;;;;;;56.45;36.72;;;;;;;0.07;100.00;94184.28;5069286;28;20048;-70
2024/02/18 06:05:49;;;;;;;56.40;36.05;;;;;;;0.18;100.00;94174.13;5070435;28;20464;-70
2024/02/18 06:08:16;;;;;;;53.92;34.03;;;;;;;0.48;100.00;94176.88;5070933;28;20420;-70
2024/02/18 06:10:44;;;;;;;48.65;32.03;;;;;;;0.63;100.00;94152.88;5073247;28;20060;-71
2024/02/18 06:13:11;;;;;;;53.03;32.25;;;;;;;0.94;100.00;94177.38;5071751;28;20066;-70
2024/02/18 06:15:38;;;;;;;52.65;33.95;;;;;;;1.14;100.00;94185.03;5069635;28;20056;-70
2024/02/18 06:18:07;;;;;;;58.42;35.17;;;;;;;1.20;100.00;94195.47;5071353;28;20056;-70
2024/02/18 06:20:34;;;;;;;56.50;33.95;;;;;;;1.35;100.00;94196.84;5071970;28;20055;-70
2024/02/18 06:23:00;;;;;;;51.95;32.95;;;;;;;1.33;100.00;94190.19;5073491;28;20047;-70
2024/02/18 06:25:29;;;;;;;60.03;38.08;;;;;;;1.41;100.00;94201.38;5076813;28;20040;-70
2024/02/18 06:27:58;;;;;;;60.03;39.13;;;;;;;1.52;100.00;94203.81;5070691;28;20044;-70
2024/02/18 06:30:25;;;;;;;55.92;34.30;;;;;;;1.56;100.00;94192.50;5070394;28;20500;-70
2024/02/18 06:32:52;;;;;;;60.65;35.58;;;;;;;1.71;100.00;94203.06;5076263;28;20134;-70
2024/02/18 06:35:18;;;;;;;46.33;29.67;;;;;;;1.73;100.00;94206.25;5068568;28;20040;-70
2024/02/18 06:37:45;;;;;;;45.95;29.40;;;;;;;1.87;100.00;94202.56;5076145;28;20056;-71
2024/02/18 06:40:13;;;;;;;46.53;31.55;;;;;;;1.96;100.00;94210.31;5072356;28;20052;-71
2024/02/18 06:42:40;;;;;;;42.92;27.98;;;;;;;1.91;100.00;94207.38;5069456;28;20051;-71
2024/02/18 06:45:09;;;;;;;74.53;44.85;;;;;;;1.97;100.00;94206.84;5082071;28;20055;-71
2024/02/18 06:47:36;;;;;;;113.53;64.05;;;;;;;2.06;100.00;94212.84;5071970;28;20049;-71
2024/02/18 06:50:03;;;;;;;97.30;56.53;;;;;;;2.11;100.00;94203.94;5072036;28;20062;-71
2024/02/18 06:52:30;;;;;;;81.35;49.80;;;;;;;2.19;100.00;94208.34;5075428;28;20080;-71
2024/02/18 06:54:57;;;;;;;84.47;52.65;;;;;;;2.25;100.00;94204.47;5068700;28;20045;-71
2024/02/18 06:57:24;;;;;;;85.25;53.42;;;;;;;2.33;100.00;94208.88;5069393;28;20048;-71
2024/02/18 06:59:51;;;;;;;87.65;58.13;;;;;;;2.43;100.00;94211.38;5077212;28;20055;-71
2024/02/18 07:02:19;;;;;;;83.85;55.90;;;;;;;2.47;100.00;94205.13;5076561;28;20091;-71
2024/02/18 07:04:46;;;;;;;88.95;53.75;;;;;;;2.50;100.00;94207.41;5071423;28;20877;-71
2024/02/18 07:07:13;;;;;;;78.18;49.40;;;;;;;2.54;100.00;94212.06;5070536;28;20080;-71
2024/02/18 07:09:42;;;;;;;83.45;50.85;;;;;;;2.64;100.00;94206.19;5071080;28;20044;-71
2024/02/18 07:12:09;;;;;;;88.63;54.83;;;;;;;2.73;99.58;94202.03;5073441;28;20056;-71
2024/02/18 07:14:36;;;;;;;100.53;62.95;;;;;;;2.76;100.00;94202.56;5069028;28;20059;-70
2024/02/18 07:17:04;;;;;;;115.10;69.63;;;;;;;2.84;100.00;94206.13;5073132;28;20052;-71
2024/02/18 07:19:32;;;;;;;110.97;71.55;;;;;;;2.90;100.00;94208.94;5069066;28;20052;-71
2024/02/18 07:21:59;;;;;;;92.88;59.75;;;;;;;2.91;99.89;94202.91;5071314;28;20106;-71
2024/02/18 07:24:26;;;;;;;80.43;50.50;;;;;;;3.04;100.00;94207.69;5067425;28;20094;-72
2024/02/18 07:26:53;;;;;;;79.97;51.92;;;;;;;3.07;99.17;94202.31;5069754;28;20056;-71
2024/02/18 07:29:20;;;;;;;81.68;51.78;;;;;;;3.20;98.88;94209.63;5068920;28;20411;-71
2024/02/18 07:31:47;;;;;;;79.22;51.00;;;;;;;3.26;98.11;94218.44;5070284;28;20566;-71
2024/02/18 07:34:14;;;;;;;71.22;45.60;;;;;;;3.23;98.19;94218.72;5071120;28;20047;-71
2024/02/18 07:36:43;;;;;;;66.25;41.05;;;;;;;3.23;99.71;94218.72;5074837;28;20598;-71
2024/02/18 07:39:10;;;;;;;62.67;41.63;;;;;;;3.23;99.57;94228.88;5069267;28;20083;-72
2024/02/18 07:41:37;;;;;;;70.00;45.35;;;;;;;3.23;98.97;94228.09;5068145;28;20412;-72
2024/02/18 07:44:05;;;;;;;70.78;46.55;;;;;;;3.24;99.36;94225.38;5075082;28;20056;-72
2024/02/18 07:46:32;;;;;;;67.57;46.30;;;;;;;3.31;99.68;94223.09;5073411;28;20522;-72
2024/02/18 07:48:59;;;;;;;68.97;44.40;;;;;;;3.34;99.26;94231.22;5069120;28;20058;-72
2024/02/18 07:51:27;;;;;;;59.58;40.05;;;;;;;3.31;99.78;94221.38;5071544;28;20055;-72
2024/02/18 07:53:56;;;;;;;59.50;37.97;;;;;;;3.39;98.70;94223.22;5069177;28;20069;-72
2024/02/18 07:56:23;;;;;;;61.45;40.08;;;;;;;3.41;99.01;94223.06;5072782;28;20052;-72
2024/02/18 07:58:50;;;;;;;75.43;46.45;;;;;;;3.42;98.70;94220.38;5070635;28;20555;-72
2024/02/18 08:01:17;;;;;;;75.13;47.85;;;;;;;3.42;98.69;94217.06;5070215;28;20385;-72
2024/02/18 08:03:44;;;;;;;95.80;62.53;;;;;;;3.48;99.35;94222.34;5076229;28;20040;-72
2024/02/18 08:06:11;;;;;;;92.68;56.85;;;;;;;3.33;100.00;94200.88;5070502;28;20134;-72
2024/02/18 08:08:38;;;;;;;94.88;58.70;;;;;;;3.50;100.00;94222.22;5074936;28;20054;-73
2024/02/18 08:11:07;;;;;;;113.65;71.85;;;;;;;3.59;99.90;94223.13;5074760;28;20082;-72
2024/02/18 08:13:34;;;;;;;106.90;69.25;;;;;;;3.64;99.32;94220.94;5074064;28;20059;-72
2024/02/18 08:16:00;;;;;;;100.60;67.07;;;;;;;3.69;100.00;94223.06;5072895;28;20055;-73
2024/02/18 08:18:27;;;;;;;101.70;67.03;;;;;;;3.76;99.42;94215.69;5071509;28;20052;-72
2024/02/18 08:20:54;;;;;;;105.10;68.05;;;;;;;3.84;98.88;94223.41;5071847;28;20139;-72
2024/02/18 08:23:21;;;;;;;124.90;74.65;;;;;;;3.86;98.87;94222.31;5073987;28;20048;-72
2024/02/18 08:25:48;;;;;;;121.30;78.15;;;;;;;3.81;98.59;94210.97;5071807;28;20095;-72
2024/02/18 08:28:16;;;;;;;135.18;86.88;;;;;;;3.92;99.51;94217.56;5074204;28;20154;-72
2024/02/18 08:30:43;;;;;;;124.15;82.68;;;;;;;3.85;98.80;94200.38;5073604;28;20067;-72
2024/02/18 08:33:10;;;;;;;131.45;84.80;;;;;;;3.98;99.20;94220.34;5073351;28;20043;-73
2024/02/18 08:35:37;;;;;;;143.93;88.32;;;;;;;4.04;99.77;94221.53;5077145;28;20538;-72
2024/02/18 08:38:04;;;;;;;131.05;86.28;;;;;;;4.08;100.00;94222.03;5071252;28;20127;-72
2024/02/18 08:40:31;;;;;;;138.90;92.65;;;;;;;4.09;100.00;94218.56;5070290;28;20052;-72
2024/02/18 08:42:58;;;;;;;143.38;92.75;;;;;;;4.10;100.00;94217.59;5079686;28;20063;-72
2024/02/18 08:45:27;;;;;;;135.27;86.30;;;;;;;4.15;100.00;94210.34;5075109;28;20045;-72
2024/02/18 08:47:54;;;;;;;124.95;80.60;;;;;;;4.16;100.00;94208.63;5078006;28;20053;-72
2024/02/18 08:50:21;;;;;;;115.93;77.82;;;;;;;4.24;100.00;94211.22;5075019;28;20787;-72
2024/02/18 08:52:48;;;;;;;121.78;77.75;;;;;;;4.31;100.00;94209.72;5082968;28;20058;-72
2024/02/18 08:55:15;;;;;;;115.70;73.75;;;;;;;4.27;100.00;94204.09;5070051;28;20481;-72
2024/02/18 08:57:42;;;;;;;116.15;75.53;;;;;;;4.42;100.00;94216.31;5071468;28;20050;-72
2024/02/18 09:00:10;;;;;;;124.97;79.07;;;;;;;4.62;100.00;94211.84;5081704;28;20052;-72
2024/02/18 09:02:39;;;;;;;118.28;76.18;;;;;;;4.71;100.00;94214.47;5072636;28;20044;-72
2024/02/18 09:05:07;;;;;;;120.03;80.47;;;;;;;4.52;100.00;94206.84;5068200;28;20059;-71
2024/02/18 09:07:34;;;;;;;150.32;97.78;;;;;;;4.69;100.00;94217.16;5080936;28;20105;-71
2024/02/18 09:10:01;;;;;;;148.95;101.15;;;;;;;4.77;100.00;94204.47;5071327;28;20493;-71
2024/02/18 09:12:28;;;;;;;145.82;97.80;;;;;;;4.86;100.00;94220.59;5070101;28;20056;-71
2024/02/18 09:14:56;;;;;;;139.80;92.95;;;;;;;4.94;100.00;94224.94;5070207;28;20394;-72
2024/02/18 09:17:22;;;;;;;116.63;75.68;;;;;;;4.95;100.00;94213.81;5080655;28;20206;-71
2024/02/18 09:19:51;;;;;;;92.30;63.03;;;;;;;5.02;100.00;94224.19;5070091;28;20048;-71
2024/02/18 09:22:18;;;;;;;103.88;70.13;;;;;;;5.06;100.00;94216.09;5076723;28;20122;-71
2024/02/18 09:24:45;;;;;;;144.57;92.88;;;;;;;5.04;100.00;94220.56;5071141;28;20050;-71
2024/02/18 09:27:12;;;;;;;134.43;94.47;;;;;;;5.04;100.00;94225.66;5069890;28;20055;-71
2024/02/18 09:29:39;;;;;;;141.98;92.97;;;;;;;5.27;100.00;94225.13;5072864;28;20036;-71
2024/02/18 09:32:07;;;;;;;141.32;95.50;;;;;;;5.29;100.00;94227.53;5075881;28;20644;-71
2024/02/18 09:34:34;;;;;;;123.00;80.63;;;;;;;5.15;100.00;94226.34;5071506;28;20863;-71
2024/02/18 09:37:02;;;;;;;122.97;85.38;;;;;;;5.34;100.00;94225.34;5071879;28;20040;-71
2024/02/18 09:39:30;;;;;;;114.63;78.80;;;;;;;5.37;100.00;94219.91;5073257;28;20049;-71
2024/02/18 09:41:58;;;;;;;111.60;75.13;;;;;;;5.40;100.00;94219.63;5071628;28;20131;-71
2024/02/18 09:44:28;;;;;;;97.45;66.38;;;;;;;5.38;100.00;94221.53;5070099;28;20052;-71
2024/02/18 09:46:57;;;;;;;95.20;61.45;;;;;;;5.39;100.00;94218.03;5070543;28;20045;-71
2024/02/18 09:49:25;;;;;;;91.18;60.15;;;;;;;5.37;100.00;94221.69;5074650;28;20120;-71
2024/02/18 09:51:55;;;;;;;177.73;109.20;;;;;;;5.44;100.00;94222.66;5071123;28;20045;-71
2024/02/18 09:54:24;;;;;;;166.57;101.05;;;;;;;5.43;100.00;94208.34;5069828;28;20520;-71
2024/02/18 09:56:51;;;;;;;131.45;88.47;;;;;;;5.57;100.00;94212.06;5079702;28;20054;-70
2024/02/18 09:59:18;;;;;;;114.53;74.97;;;;;;;5.63;100.00;94211.44;5071235;28;20094;-71
2024/02/18 10:01:50;;;;;;;154.40;96.05;;;;;;;5.60;100.00;94201.56;5075551;28;20051;-71
2024/02/18 10:04:16;;;;;;;144.95;91.53;;;;;;;5.74;100.00;94213.72;5072551;28;20044;-71
2024/02/18 10:06:44;;;;;;;166.23;99.43;;;;;;;5.85;100.00;94209.28;5075320;28;20047;-70
2024/02/18 10:09:11;;;;;;;219.93;137.65;;;;;;;5.93;100.00;94208.50;5073632;28;20040;-70
2024/02/18 10:11:39;;;;;;;190.07;113.35;;;;;;;6.01;100.00;94208.50;5072140;28;20045;-70
2024/02/18 10:14:06;;;;;;;193.05;120.95;;;;;;;6.14;100.00;94203.81;5072661;28;20063;-70
2024/02/18 10:16:35;;;;;;;144.45;93.03;;;;;;;6.25;100.00;94199.34;5075844;28;20048;-70
2024/02/18 10:19:03;;;;;;;158.27;99.88;;;;;;;6.21;100.00;94191.19;5074392;28;20083;-70
2024/02/18 10:21:30;;;;;;;158.52;98.78;;;;;;;6.37;99.81;94192.16;5070535;28;20090;-71
2024/02/18 10:23:56;;;;;;;156.80;98.07;;;;;;;6.44;99.41;94190.59;5068788;28;20044;-70
2024/02/18 10:26:23;;;;;;;142.60;92.75;;;;;;;6.55;99.65;94182.63;5068326;28;20428;-70
2024/02/18 10:28:53;;;;;;;254.52;163.57;;;;;;;6.74;98.85;94179.88;5069827;28;20045;-70
2024/02/18 10:31:20;;;;;;;175.10;114.75;;;;;;;6.87;98.57;94169.16;5078144;28;20492;-71
2024/02/18 10:33:47;;;;;;;95.40;64.72;;;;;;;6.97;98.11;94164.66;5073090;28;20768;-71
2024/02/18 10:36:18;;;;;;;84.88;57.40;;;;;;;6.93;98.22;94148.06;5068653;28;20048;-71
2024/02/18 10:38:46;;;;;;;86.93;57.83;;;;;;;7.29;98.08;94162.19;5068632;28;20132;-71
2024/02/18 10:41:17;;;;;;;71.85;45.50;;;;;;;7.48;96.73;94163.53;5068819;28;20419;-71
2024/02/18 10:43:52;;;;;;;65.20;44.30;;;;;;;7.58;95.15;94163.34;5067356;28;20090;-71
2024/02/18 10:46:23;;;;;;;79.47;50.38;;;;;;;7.69;95.64;94157.06;5075043;28;20397;-71
2024/02/18 10:48:53;;;;;;;68.85;43.28;;;;;;;7.79;94.14;94138.94;5069773;28;20052;-71
2024/02/18 10:51:26;;;;;;;50.83;32.35;;;;;;;8.01;93.46;94148.38;5070351;28;20082;-72
2024/02/18 10:54:04;;;;;;;52.35;34.13;;;;;;;8.15;91.95;94146.09;5070324;28;20049;-71
2024/02/18 10:56:33;;;;;;;54.28;32.25;;;;;;;8.11;91.67;94132.81;5072091;28;20054;-71
2024/02/18 10:59:08;;;;;;;48.90;27.45;;;;;;;8.44;89.18;94139.44;5074443;28;20056;-72
2024/02/18 11:01:42;;;;;;;42.70;27.20;;;;;;;8.63;87.77;94145.88;5073879;28;20050;-71
2024/02/18 11:04:10;;;;;;;52.50;27.40;;;;;;;8.75;86.85;94148.03;5072892;28;20045;-71
2024/02/18 11:06:38;;;;;;;38.90;23.88;;;;;;;8.73;87.07;94148.19;5066681;28;20094;-71
2024/02/18 11:09:08;;;;;;;38.30;22.67;;;;;;;8.64;87.28;94142.34;5069775;28;20055;-71
2024/02/18 11:11:36;;;;;;;39.67;22.98;;;;;;;8.61;87.76;94131.66;5075556;28;20123;-71
2024/02/18 11:14:05;;;;;;;36.38;22.17;;;;;;;8.66;87.93;94142.19;5073474;28;20051;-71
2024/02/18 11:16:33;;;;;;;39.63;22.13;;;;;;;8.57;89.38;94131.22;5073018;28;20048;-71
2024/02/18 11:19:02;;;;;;;41.28;21.90;;;;;;;8.98;87.77;94137.69;5068505;28;20056;-71
2024/02/18 11:21:30;;;;;;;42.58;21.23;;;;;;;9.05;86.59;94127.53;5070517;28;20057;-71